Time;durP1;ratioP1;P1;durP2;ratioP2;P2;SDS_P1;SDS_P2;PMS_P1;PMS_P2;Temp;Humidity;BMP_temperature;BMP_pressure;BME280_temperature;BME280_humidity;BME280_pressure;Samples;Min_cycle;Max_cycle;Signal;HPM_P1;HPM_P2
2023/12/29 00:00:06;;;;;;;6.22;3.95;;;8.70;75.50;;;;;;5003302;28;20088;-60
2023/12/29 00:02:32;;;;;;;6.78;4.03;;;8.70;75.30;;;;;;4999677;28;20037;-60
2023/12/29 00:04:57;;;;;;;7.97;3.85;;;8.70;75.30;;;;;;5000024;28;20025;-60
2023/12/29 00:07:23;;;;;;;6.32;3.88;;;8.70;75.50;;;;;;5007059;28;20025;-59
2023/12/29 00:09:48;;;;;;;6.60;3.72;;;8.80;75.50;;;;;;5004504;28;20029;-60
2023/12/29 00:12:14;;;;;;;5.38;4.00;;;8.80;75.60;;;;;;5004331;28;20042;-60
2023/12/29 00:14:40;;;;;;;7.00;4.13;;;8.80;76.30;;;;;;5000900;28;20431;-59
2023/12/29 00:17:06;;;;;;;5.03;3.78;;;8.80;75.40;;;;;;5002917;28;20042;-59
2023/12/29 00:19:32;;;;;;;7.45;3.75;;;8.70;75.50;;;;;;5003273;28;20038;-59
2023/12/29 00:21:59;;;;;;;6.40;3.50;;;8.80;75.60;;;;;;5008686;28;20037;-59
2023/12/29 00:24:25;;;;;;;5.63;3.47;;;8.80;75.30;;;;;;5004696;28;20028;-59
2023/12/29 00:26:51;;;;;;;5.60;3.67;;;8.80;75.50;;;;;;5002115;28;20520;-59
2023/12/29 00:29:17;;;;;;;5.45;3.65;;;8.80;76.40;;;;;;4983515;28;20053;-59
2023/12/29 00:31:43;;;;;;;4.88;3.47;;;8.80;75.80;;;;;;4984182;28;20073;-59
2023/12/29 00:34:08;;;;;;;5.95;3.95;;;8.80;75.70;;;;;;5002217;28;20079;-59
2023/12/29 00:36:35;;;;;;;7.03;4.00;;;8.80;75.80;;;;;;5003802;28;20032;-59
2023/12/29 00:39:00;;;;;;;5.55;4.03;;;8.80;75.90;;;;;;5002998;28;20764;-59
2023/12/29 00:41:26;;;;;;;5.43;3.70;;;8.80;76.20;;;;;;4999413;28;20034;-59
2023/12/29 00:43:52;;;;;;;4.85;3.90;;;8.90;76.00;;;;;;5003142;28;20076;-60
2023/12/29 00:46:18;;;;;;;7.22;3.90;;;8.90;75.90;;;;;;4901975;28;20026;-60
2023/12/29 00:48:46;;;;;;;7.10;4.00;;;8.90;75.90;;;;;;4999802;28;20409;-60
2023/12/29 00:51:11;;;;;;;5.20;4.15;;;8.90;75.60;;;;;;5001526;28;20053;-60
2023/12/29 00:53:37;;;;;;;5.75;4.15;;;9.00;75.60;;;;;;5003075;28;20057;-61
2023/12/29 00:56:09;;;;;;;6.03;4.13;;;9.00;75.60;;;;;;5003568;28;20089;-60
2023/12/29 00:58:34;;;;;;;5.40;4.10;;;9.00;75.60;;;;;;4994946;28;20034;-61
2023/12/29 01:01:00;;;;;;;5.10;4.18;;;9.00;75.50;;;;;;5001984;28;20029;-61
2023/12/29 01:03:25;;;;;;;6.45;4.05;;;9.00;75.60;;;;;;5003740;28;21416;-59
2023/12/29 01:05:51;;;;;;;5.40;4.30;;;9.10;75.70;;;;;;5000922;28;20041;-59
2023/12/29 01:08:17;;;;;;;6.03;4.45;;;9.10;75.40;;;;;;5002664;28;20030;-60
2023/12/29 01:10:42;;;;;;;5.55;4.47;;;9.10;75.30;;;;;;4984313;28;20026;-59
2023/12/29 01:13:08;;;;;;;7.63;4.68;;;9.10;75.40;;;;;;5002839;28;20143;-59
2023/12/29 01:15:34;;;;;;;7.53;4.57;;;9.10;75.30;;;;;;5002627;28;20028;-60
2023/12/29 01:17:59;;;;;;;8.40;5.50;;;9.20;75.20;;;;;;5004651;28;20030;-60
2023/12/29 01:20:25;;;;;;;6.60;4.18;;;9.20;75.20;;;;;;4992266;28;20033;-59
2023/12/29 01:22:51;;;;;;;5.65;4.53;;;9.10;75.00;;;;;;5008868;28;20033;-59
2023/12/29 01:25:16;;;;;;;6.35;4.80;;;9.20;75.00;;;;;;5000573;28;20503;-59
2023/12/29 01:27:42;;;;;;;9.63;4.88;;;9.10;74.90;;;;;;4998843;28;20030;-59
2023/12/29 01:30:08;;;;;;;6.70;4.63;;;9.10;74.70;;;;;;4993503;28;20038;-60
2023/12/29 01:32:34;;;;;;;9.45;4.93;;;9.10;74.70;;;;;;5003539;28;20057;-61
2023/12/29 01:34:59;;;;;;;5.82;4.70;;;9.10;74.60;;;;;;5002638;28;20030;-61
2023/12/29 01:37:25;;;;;;;6.32;4.85;;;9.10;74.50;;;;;;5003220;28;20072;-60
2023/12/29 01:39:51;;;;;;;6.03;4.80;;;9.10;74.50;;;;;;5006279;28;20026;-59
2023/12/29 01:42:16;;;;;;;7.75;4.65;;;9.10;74.50;;;;;;5004394;28;20037;-61
2023/12/29 01:44:44;;;;;;;7.68;4.80;;;9.10;74.50;;;;;;5005640;28;20516;-58
2023/12/29 01:47:16;;;;;;;8.45;5.05;;;9.10;74.50;;;;;;4956631;28;20332;-59
2023/12/29 01:49:44;;;;;;;8.88;5.18;;;9.00;74.60;;;;;;5008894;28;20124;-61
2023/12/29 01:52:11;;;;;;;7.72;5.25;;;9.00;74.50;;;;;;5003756;28;20133;-59
2023/12/29 01:54:42;;;;;;;6.65;4.85;;;9.00;74.50;;;;;;5004266;28;20838;-60
2023/12/29 01:57:08;;;;;;;7.00;5.30;;;9.00;74.50;;;;;;5002276;28;20068;-60
2023/12/29 01:59:35;;;;;;;8.65;5.90;;;9.00;74.70;;;;;;5001784;28;20109;-59
2023/12/29 02:02:01;;;;;;;8.70;5.82;;;9.00;74.80;;;;;;4999732;28;20034;-59
2023/12/29 02:04:28;;;;;;;8.07;5.32;;;9.00;74.60;;;;;;4999556;28;20054;-61
2023/12/29 02:06:55;;;;;;;9.00;5.80;;;9.10;74.60;;;;;;5004464;28;20030;-60
2023/12/29 02:09:21;;;;;;;10.98;5.93;;;9.00;74.60;;;;;;5000821;28;20088;-60
2023/12/29 02:11:47;;;;;;;9.88;6.18;;;9.00;74.60;;;;;;4998956;28;20037;-62
2023/12/29 02:14:18;;;;;;;7.75;5.57;;;9.00;74.60;;;;;;5002441;28;20542;-60
2023/12/29 02:17:02;;;;;;;10.02;6.38;;;9.00;74.50;;;;;;4999652;28;20372;-60
2023/12/29 02:19:55;;;;;;;12.77;6.80;;;9.00;75.20;;;;;;5000037;28;20504;-59
2023/12/29 02:22:20;;;;;;;12.82;6.15;;;9.00;75.20;;;;;;4980880;28;20066;-60
2023/12/29 02:24:49;;;;;;;12.60;5.93;;;9.00;74.20;;;;;;5002472;28;20068;-61
2023/12/29 02:28:04;;;;;;;11.57;5.60;;;9.00;74.10;;;;;;5002217;28;20084;-61
2023/12/29 02:30:39;;;;;;;7.57;5.68;;;9.00;74.40;;;;;;4941540;28;20070;-60
2023/12/29 02:33:07;;;;;;;9.00;5.82;;;8.90;74.00;;;;;;4939526;28;20062;-60
2023/12/29 02:35:39;;;;;;;7.97;5.80;;;8.90;73.90;;;;;;4939672;28;20114;-60
2023/12/29 02:38:05;;;;;;;9.63;6.00;;;8.90;74.00;;;;;;4935246;28;20031;-60
2023/12/29 02:40:31;;;;;;;12.32;6.47;;;8.90;74.00;;;;;;4937732;28;20474;-60
2023/12/29 02:42:56;;;;;;;11.55;6.82;;;8.80;73.90;;;;;;4941176;28;20034;-59
2023/12/29 02:45:23;;;;;;;8.15;5.95;;;8.80;74.00;;;;;;4861263;28;20032;-60
2023/12/29 02:47:49;;;;;;;9.45;6.15;;;8.80;74.20;;;;;;4940896;28;20039;-60
2023/12/29 02:50:15;;;;;;;10.25;6.20;;;8.80;74.10;;;;;;4942167;28;20048;-60
2023/12/29 02:52:41;;;;;;;7.80;6.10;;;8.80;74.00;;;;;;4943560;28;20102;-60
2023/12/29 02:55:07;;;;;;;8.65;5.85;;;8.80;74.20;;;;;;4962295;28;20082;-60
2023/12/29 02:57:32;;;;;;;7.53;5.70;;;8.80;74.20;;;;;;4959624;28;20105;-60
2023/12/29 02:59:58;;;;;;;9.85;5.80;;;8.70;74.20;;;;;;4964050;28;20482;-61
2023/12/29 03:02:24;;;;;;;10.18;6.03;;;8.70;74.20;;;;;;4962607;28;20041;-60
2023/12/29 03:04:50;;;;;;;10.13;6.18;;;8.70;74.10;;;;;;4967175;28;20035;-60
2023/12/29 03:07:16;;;;;;;8.20;5.68;;;8.70;74.30;;;;;;5007645;28;20129;-60
2023/12/29 03:09:42;;;;;;;6.72;5.63;;;8.80;74.40;;;;;;5005547;28;20033;-60
2023/12/29 03:12:07;;;;;;;7.53;5.25;;;8.70;74.30;;;;;;4998555;28;20049;-60
2023/12/29 03:14:33;;;;;;;9.70;6.13;;;8.70;74.40;;;;;;5004392;28;20037;-60
2023/12/29 03:16:59;;;;;;;11.00;5.78;;;8.70;74.50;;;;;;5002293;28;20109;-59
2023/12/29 03:19:25;;;;;;;9.38;5.03;;;8.70;74.50;;;;;;5003117;28;20048;-60
2023/12/29 03:21:50;;;;;;;8.55;5.30;;;8.70;74.50;;;;;;5004063;28;20381;-59
2023/12/29 03:24:17;;;;;;;7.40;5.65;;;8.80;74.60;;;;;;5008693;28;20034;-59
2023/12/29 03:26:42;;;;;;;6.13;4.90;;;8.80;74.60;;;;;;5005327;28;20061;-59
2023/12/29 03:29:08;;;;;;;7.93;5.82;;;8.80;74.50;;;;;;5006403;28;20108;-60
2023/12/29 03:31:34;;;;;;;6.78;5.25;;;8.80;74.40;;;;;;5005897;28;20065;-61
2023/12/29 03:33:59;;;;;;;8.07;5.65;;;8.80;74.30;;;;;;5006844;28;20022;-61
2023/12/29 03:36:25;;;;;;;7.38;5.63;;;8.80;74.20;;;;;;5003175;28;20084;-59
2023/12/29 03:38:51;;;;;;;11.70;6.10;;;8.70;74.10;;;;;;5003097;28;20658;-60
2023/12/29 03:41:17;;;;;;;8.00;5.45;;;8.70;74.00;;;;;;5008591;28;20153;-60
2023/12/29 03:43:42;;;;;;;8.95;5.68;;;8.70;73.90;;;;;;5005032;28;20101;-59
2023/12/29 03:46:21;;;;;;;8.68;5.55;;;8.70;73.90;;;;;;5004642;28;20034;-60
2023/12/29 03:48:47;;;;;;;8.68;5.15;;;8.60;74.00;;;;;;5002605;28;20132;-60
2023/12/29 03:51:14;;;;;;;9.38;5.60;;;8.60;73.80;;;;;;5005786;28;20050;-59
2023/12/29 03:53:40;;;;;;;7.75;5.13;;;8.50;73.60;;;;;;5006864;28;20041;-59
2023/12/29 03:56:14;;;;;;;7.80;5.40;;;8.50;73.60;;;;;;5011860;28;20041;-60
2023/12/29 03:58:40;;;;;;;8.60;5.13;;;8.40;73.70;;;;;;5002780;28;20026;-60
2023/12/29 04:01:11;;;;;;;9.27;5.72;;;8.40;73.70;;;;;;4986630;28;20074;-59
2023/12/29 04:03:37;;;;;;;6.47;5.13;;;8.30;73.80;;;;;;5001793;28;20061;-60
2023/12/29 04:06:03;;;;;;;6.80;5.10;;;8.30;73.80;;;;;;5004666;28;20026;-59
2023/12/29 04:08:28;;;;;;;8.77;5.32;;;8.30;74.00;;;;;;5005489;28;20076;-60
2023/12/29 04:10:54;;;;;;;6.88;5.15;;;8.20;74.00;;;;;;5001737;28;20017;-59
2023/12/29 04:13:19;;;;;;;8.93;5.22;;;8.20;74.10;;;;;;5004999;28;20045;-60
2023/12/29 04:15:45;;;;;;;8.85;4.97;;;8.20;74.20;;;;;;5005901;28;20097;-62
2023/12/29 04:18:11;;;;;;;7.43;4.63;;;8.20;74.20;;;;;;5005868;28;20040;-62
2023/12/29 04:20:36;;;;;;;9.23;5.38;;;8.20;74.20;;;;;;5003144;28;20030;-61
2023/12/29 04:23:03;;;;;;;7.15;4.70;;;8.10;74.10;;;;;;5008103;28;20084;-59
2023/12/29 04:25:29;;;;;;;7.55;4.75;;;8.10;74.00;;;;;;4993816;28;20022;-60
2023/12/29 04:27:54;;;;;;;7.50;4.78;;;8.10;74.00;;;;;;5006595;28;20690;-60
2023/12/29 04:30:20;;;;;;;8.27;5.07;;;8.00;74.00;;;;;;5005230;28;20412;-61
2023/12/29 04:32:46;;;;;;;6.18;4.72;;;8.00;74.00;;;;;;5000161;28;20042;-61
2023/12/29 04:35:14;;;;;;;6.97;4.85;;;8.00;74.10;;;;;;4999135;28;20044;-59
2023/12/29 04:37:40;;;;;;;6.25;4.32;;;7.90;74.00;;;;;;5005725;28;20053;-59
2023/12/29 04:40:07;;;;;;;7.25;4.65;;;7.90;74.00;;;;;;4985154;28;21034;-59
2023/12/29 04:42:32;;;;;;;6.22;4.40;;;7.90;74.00;;;;;;5003603;28;20034;-61
2023/12/29 04:45:07;;;;;;;6.28;4.28;;;7.80;73.90;;;;;;5001392;28;20026;-59
2023/12/29 04:47:32;;;;;;;5.88;4.32;;;7.80;74.70;;;;;;5002556;28;20026;-59
2023/12/29 04:49:58;;;;;;;8.77;4.22;;;7.70;73.90;;;;;;5003103;28;20037;-61
2023/12/29 04:52:24;;;;;;;10.07;4.35;;;7.70;74.00;;;;;;4988154;28;20156;-60
2023/12/29 04:54:50;;;;;;;6.60;3.88;;;7.70;74.20;;;;;;4985291;28;20050;-60
2023/12/29 04:57:15;;;;;;;7.13;3.97;;;7.60;74.20;;;;;;5001060;28;20100;-60
2023/12/29 04:59:41;;;;;;;4.75;3.72;;;7.60;74.00;;;;;;5000968;28;20038;-60
2023/12/29 05:02:07;;;;;;;6.43;3.92;;;7.60;74.00;;;;;;5008941;28;20045;-60
2023/12/29 05:04:32;;;;;;;6.82;4.38;;;7.50;74.00;;;;;;5005934;28;20033;-60
2023/12/29 05:06:58;;;;;;;6.93;3.83;;;7.50;74.20;;;;;;5003219;28;20109;-60
2023/12/29 05:09:24;;;;;;;5.20;4.35;;;7.50;75.00;;;;;;4999134;28;20026;-60
2023/12/29 05:11:49;;;;;;;8.75;3.95;;;7.40;74.40;;;;;;5006195;28;20037;-59
2023/12/29 05:14:15;;;;;;;6.68;4.47;;;7.40;74.50;;;;;;5009053;28;20507;-59
2023/12/29 05:16:42;;;;;;;6.22;3.90;;;7.40;74.70;;;;;;5004471;28;20069;-60
2023/12/29 05:19:08;;;;;;;6.18;4.40;;;7.40;74.80;;;;;;5000922;28;20041;-60
2023/12/29 05:21:33;;;;;;;6.13;4.57;;;7.40;75.00;;;;;;5000401;28;20034;-60
2023/12/29 05:23:59;;;;;;;7.57;4.82;;;7.40;75.10;;;;;;5002842;28;20026;-60
2023/12/29 05:26:25;;;;;;;8.27;5.68;;;7.40;75.20;;;;;;5006795;28;20072;-61
2023/12/29 05:28:51;;;;;;;11.60;5.65;;;7.40;75.50;;;;;;5002728;28;20053;-59
2023/12/29 05:31:16;;;;;;;9.77;5.85;;;7.50;75.70;;;;;;5003083;28;20061;-59
2023/12/29 05:33:43;;;;;;;9.23;6.25;;;7.50;75.80;;;;;;5002053;28;20108;-59
2023/12/29 05:36:10;;;;;;;9.13;6.00;;;7.50;75.90;;;;;;4985665;28;20034;-60
2023/12/29 05:38:37;;;;;;;7.82;5.93;;;7.60;76.10;;;;;;5002049;28;20404;-60
2023/12/29 05:41:04;;;;;;;9.38;6.15;;;7.60;76.20;;;;;;5001832;28;20119;-60
2023/12/29 05:43:31;;;;;;;8.10;5.65;;;7.70;76.40;;;;;;5002958;28;20029;-59
2023/12/29 05:45:58;;;;;;;9.70;6.20;;;7.70;76.40;;;;;;4911901;28;20040;-59
2023/12/29 05:48:23;;;;;;;8.65;5.90;;;7.80;76.40;;;;;;5002367;28;20060;-61
2023/12/29 05:50:50;;;;;;;8.30;5.95;;;7.80;76.20;;;;;;5002359;28;20069;-60
2023/12/29 05:53:16;;;;;;;11.52;6.50;;;7.90;76.30;;;;;;5001807;28;20112;-60
2023/12/29 05:55:43;;;;;;;9.45;5.28;;;7.90;76.20;;;;;;5002858;28;20022;-60
2023/12/29 05:58:08;;;;;;;9.98;6.18;;;8.00;76.10;;;;;;5002274;28;20030;-60
2023/12/29 06:00:34;;;;;;;9.50;5.63;;;8.00;75.90;;;;;;5002166;28;20087;-59
2023/12/29 06:02:59;;;;;;;11.30;6.25;;;8.10;76.10;;;;;;5001206;28;20029;-60
2023/12/29 06:05:25;;;;;;;8.85;5.63;;;8.10;76.10;;;;;;5003958;28;20381;-61
2023/12/29 06:07:51;;;;;;;9.70;5.78;;;8.10;76.00;;;;;;5004649;28;20489;-61
2023/12/29 06:10:16;;;;;;;9.30;5.50;;;8.20;75.90;;;;;;5000517;28;20124;-60
2023/12/29 06:12:42;;;;;;;9.95;5.45;;;8.20;75.60;;;;;;5001862;28;20041;-59
2023/12/29 06:15:08;;;;;;;8.52;6.35;;;8.20;75.50;;;;;;5003557;28;20084;-59
2023/12/29 06:17:35;;;;;;;9.13;5.90;;;8.30;75.60;;;;;;5000605;28;20037;-60
2023/12/29 06:20:03;;;;;;;8.48;5.57;;;8.30;75.40;;;;;;5001568;28;20025;-60
2023/12/29 06:22:29;;;;;;;9.20;5.90;;;8.30;75.40;;;;;;5004722;28;20407;-59
2023/12/29 06:24:54;;;;;;;10.48;6.15;;;8.30;75.30;;;;;;5005949;28;20034;-60
2023/12/29 06:27:20;;;;;;;9.55;5.60;;;8.30;75.20;;;;;;5005040;28;20033;-59
2023/12/29 06:29:45;;;;;;;8.45;5.53;;;8.30;75.20;;;;;;5006330;28;20431;-59
2023/12/29 06:32:11;;;;;;;9.82;5.72;;;8.30;75.10;;;;;;5004767;28;20455;-60
2023/12/29 06:34:37;;;;;;;8.75;5.32;;;8.30;75.10;;;;;;5005431;28;20097;-60
2023/12/29 06:37:02;;;;;;;7.57;5.35;;;8.30;75.20;;;;;;5014909;28;20049;-59
2023/12/29 06:39:28;;;;;;;7.05;4.40;;;8.30;75.30;;;;;;5009337;28;20042;-61
2023/12/29 06:41:54;;;;;;;7.13;4.75;;;8.40;75.30;;;;;;5007525;28;20033;-60
2023/12/29 06:44:19;;;;;;;7.97;4.88;;;8.40;75.40;;;;;;5005378;28;20044;-60
2023/12/29 06:46:45;;;;;;;6.50;4.63;;;8.40;75.40;;;;;;4933677;28;20017;-60
2023/12/29 06:49:11;;;;;;;9.40;5.15;;;8.40;75.30;;;;;;4997281;28;20033;-60
2023/12/29 06:51:38;;;;;;;6.38;4.28;;;8.40;75.20;;;;;;5005052;28;20124;-60
2023/12/29 06:54:04;;;;;;;7.00;4.43;;;8.40;75.10;;;;;;5004222;28;20049;-61
2023/12/29 06:56:30;;;;;;;8.30;4.50;;;8.50;75.20;;;;;;5005425;28;20033;-59
2023/12/29 06:58:55;;;;;;;14.10;5.03;;;8.50;75.20;;;;;;5004846;28;20049;-61
2023/12/29 07:01:21;;;;;;;10.90;5.55;;;8.50;75.20;;;;;;5004617;28;20496;-60
2023/12/29 07:03:46;;;;;;;7.38;5.05;;;8.50;75.10;;;;;;4987894;28;20412;-60
2023/12/29 07:06:12;;;;;;;6.00;4.60;;;8.50;75.00;;;;;;5003656;28;20037;-58
2023/12/29 07:08:38;;;;;;;6.50;4.32;;;8.50;74.90;;;;;;5005966;28;20054;-59
2023/12/29 07:11:04;;;;;;;6.50;3.88;;;8.60;75.00;;;;;;4987201;28;20114;-60
2023/12/29 07:13:29;;;;;;;6.43;4.03;;;8.60;75.20;;;;;;5009299;28;20041;-60
2023/12/29 07:15:55;;;;;;;8.65;4.20;;;8.60;75.10;;;;;;4988684;28;20084;-61
2023/12/29 07:18:21;;;;;;;5.20;4.13;;;8.60;75.10;;;;;;5001312;28;20034;-60
2023/12/29 07:20:46;;;;;;;6.75;4.28;;;8.60;75.10;;;;;;4996965;28;20030;-60
2023/12/29 07:23:12;;;;;;;6.20;3.63;;;8.60;75.10;;;;;;5003509;28;20030;-59
2023/12/29 07:25:37;;;;;;;7.05;4.80;;;8.70;75.20;;;;;;5002631;28;20114;-60
2023/12/29 07:28:03;;;;;;;8.40;5.32;;;8.70;75.10;;;;;;5003975;28;20034;-61
2023/12/29 07:30:29;;;;;;;8.60;5.05;;;8.70;74.90;;;;;;5004405;28;20121;-61
2023/12/29 07:32:55;;;;;;;10.70;5.80;;;8.70;74.70;;;;;;5003852;28;20072;-61
2023/12/29 07:35:20;;;;;;;6.95;4.82;;;8.70;74.60;;;;;;4987360;28;20030;-61
2023/12/29 07:37:46;;;;;;;5.57;4.10;;;8.70;74.60;;;;;;4999376;28;20120;-62
2023/12/29 07:40:13;;;;;;;5.45;3.85;;;8.70;74.60;;;;;;4999381;28;20121;-62
2023/12/29 07:42:46;;;;;;;7.97;4.70;;;8.70;74.60;;;;;;5002571;28;20060;-62
2023/12/29 07:45:13;;;;;;;5.18;3.97;;;8.70;74.60;;;;;;4939445;28;20034;-60
2023/12/29 07:47:39;;;;;;;5.05;3.65;;;8.70;74.60;;;;;;5004100;28;20567;-61
2023/12/29 07:50:05;;;;;;;5.30;3.65;;;8.70;74.70;;;;;;5000623;28;20034;-61
2023/12/29 07:52:31;;;;;;;6.38;4.03;;;8.70;74.70;;;;;;5000922;28;20607;-62
2023/12/29 07:54:57;;;;;;;6.72;3.95;;;8.80;75.00;;;;;;5000100;28;20095;-61
2023/12/29 07:57:22;;;;;;;5.15;3.58;;;8.80;75.00;;;;;;4996619;28;20160;-61
2023/12/29 07:59:48;;;;;;;7.28;3.35;;;8.80;75.20;;;;;;5003907;28;20022;-61
2023/12/29 08:02:13;;;;;;;5.20;3.60;;;8.90;75.40;;;;;;5003867;28;20026;-61
2023/12/29 08:04:39;;;;;;;4.53;3.42;;;8.90;75.40;;;;;;5003928;28;20511;-61
2023/12/29 08:07:05;;;;;;;9.07;4.93;;;9.00;75.40;;;;;;4984092;28;20049;-61
2023/12/29 08:09:30;;;;;;;5.43;3.67;;;9.10;75.40;;;;;;5006294;28;20044;-61
2023/12/29 08:11:56;;;;;;;3.92;2.95;;;9.10;75.20;;;;;;5003805;28;20103;-62
2023/12/29 08:14:22;;;;;;;3.50;2.83;;;9.20;75.20;;;;;;5004467;28;20034;-62
2023/12/29 08:16:48;;;;;;;4.00;2.97;;;9.20;75.10;;;;;;5002985;28;20172;-62
2023/12/29 08:19:15;;;;;;;5.32;3.15;;;9.20;75.00;;;;;;5004980;28;20034;-62
2023/12/29 08:21:40;;;;;;;5.30;3.42;;;9.30;75.00;;;;;;5006139;28;20028;-62
2023/12/29 08:24:07;;;;;;;4.55;3.13;;;9.40;74.80;;;;;;5004437;28;20480;-62
2023/12/29 08:26:33;;;;;;;6.05;4.10;;;9.40;74.80;;;;;;5004223;28;20030;-62
2023/12/29 08:28:58;;;;;;;8.98;3.88;;;9.40;74.80;;;;;;5004325;28;20041;-61
2023/12/29 08:31:26;;;;;;;5.43;3.95;;;9.40;74.90;;;;;;5003254;28;20046;-60
2023/12/29 08:33:51;;;;;;;6.03;3.85;;;9.50;75.10;;;;;;5003637;28;20103;-62
2023/12/29 08:36:21;;;;;;;5.45;3.92;;;9.50;75.20;;;;;;4995926;28;20105;-61
2023/12/29 08:38:47;;;;;;;7.38;3.88;;;9.60;75.20;;;;;;5003579;28;20133;-61
2023/12/29 08:41:16;;;;;;;6.97;4.03;;;9.80;75.20;;;;;;5002782;28;20032;-61
2023/12/29 08:43:41;;;;;;;4.80;4.13;;;9.90;75.00;;;;;;4998109;28;20030;-61
2023/12/29 08:46:07;;;;;;;9.75;3.65;;;9.90;74.70;;;;;;4920972;28;20037;-61
2023/12/29 08:48:34;;;;;;;7.22;3.92;;;10.00;74.60;;;;;;5010682;28;20104;-61
2023/12/29 08:50:59;;;;;;;7.45;4.00;;;10.10;74.40;;;;;;5005650;28;20050;-61
2023/12/29 08:53:25;;;;;;;6.00;4.18;;;10.20;74.20;;;;;;5004672;28;20045;-61
2023/12/29 08:55:51;;;;;;;6.55;4.05;;;10.30;74.00;;;;;;4999921;28;20396;-62
2023/12/29 08:58:16;;;;;;;5.13;4.10;;;10.30;73.80;;;;;;5002917;28;20747;-61
2023/12/29 09:00:42;;;;;;;6.55;3.55;;;10.40;73.60;;;;;;5002756;28;20034;-62
2023/12/29 09:03:08;;;;;;;5.97;3.95;;;10.50;73.50;;;;;;4999589;28;20527;-62
2023/12/29 09:05:33;;;;;;;6.55;4.18;;;10.50;73.20;;;;;;4999992;28;20029;-62
2023/12/29 09:07:59;;;;;;;8.00;4.55;;;10.60;73.30;;;;;;4999318;28;20031;-62
2023/12/29 09:10:25;;;;;;;5.20;3.67;;;10.70;73.30;;;;;;5004814;28;20075;-62
2023/12/29 09:12:51;;;;;;;6.70;4.18;;;10.70;73.30;;;;;;5000882;28;20063;-61
2023/12/29 09:15:16;;;;;;;11.75;5.10;;;10.80;73.30;;;;;;4986450;28;20044;-61
2023/12/29 09:17:42;;;;;;;5.90;3.90;;;10.90;73.30;;;;;;5006833;28;20051;-61
2023/12/29 09:20:09;;;;;;;5.63;4.10;;;11.00;73.00;;;;;;5011267;28;20094;-62
2023/12/29 09:22:35;;;;;;;5.35;4.30;;;11.10;72.90;;;;;;5022425;28;20026;-61
2023/12/29 09:25:01;;;;;;;5.75;3.88;;;11.20;72.80;;;;;;5007580;28;20044;-63
2023/12/29 09:27:26;;;;;;;6.70;4.03;;;11.30;72.60;;;;;;5015284;28;20064;-62
2023/12/29 09:29:52;;;;;;;5.50;3.92;;;11.40;72.30;;;;;;5003195;28;20030;-63
2023/12/29 09:32:18;;;;;;;4.38;3.65;;;11.50;72.20;;;;;;5005143;28;20050;-61
2023/12/29 09:34:43;;;;;;;8.00;3.60;;;11.60;72.20;;;;;;5007575;28;20026;-61
2023/12/29 09:37:09;;;;;;;6.68;3.72;;;11.60;72.00;;;;;;5001524;28;20030;-62
2023/12/29 09:39:35;;;;;;;4.68;3.50;;;11.80;71.70;;;;;;5008653;28;20033;-62
2023/12/29 09:42:05;;;;;;;5.75;3.75;;;11.80;71.40;;;;;;5002687;28;20385;-62
2023/12/29 09:44:31;;;;;;;5.50;3.92;;;11.80;70.90;;;;;;5003571;28;20084;-62
2023/12/29 09:47:04;;;;;;;4.82;3.42;;;11.80;70.90;;;;;;4924136;28;20065;-62
2023/12/29 09:49:38;;;;;;;6.63;3.42;;;11.90;71.40;;;;;;4997097;28;20057;-61
2023/12/29 09:52:10;;;;;;;4.80;3.40;;;11.90;70.90;;;;;;5003733;28;20115;-61
2023/12/29 09:54:37;;;;;;;4.72;3.42;;;12.00;71.20;;;;;;4999906;28;20048;-62
2023/12/29 09:57:05;;;;;;;4.75;3.20;;;12.00;71.10;;;;;;5006679;28;20053;-61
2023/12/29 09:59:35;;;;;;;3.80;2.75;;;12.00;70.80;;;;;;5008334;28;20388;-62
2023/12/29 10:02:04;;;;;;;3.95;2.90;;;12.00;70.60;;;;;;5012921;28;20592;-62
2023/12/29 10:04:29;;;;;;;5.47;3.10;;;12.00;70.80;;;;;;5011259;28;20049;-62
2023/12/29 10:07:00;;;;;;;4.15;3.20;;;12.00;70.90;;;;;;5012331;28;20034;-62
2023/12/29 10:09:27;;;;;;;7.30;3.17;;;12.00;70.80;;;;;;5007436;28;20037;-62
2023/12/29 10:11:54;;;;;;;2.90;2.53;;;12.00;70.90;;;;;;5007080;28;20029;-61
2023/12/29 10:14:27;;;;;;;4.72;2.85;;;12.00;71.10;;;;;;4998793;28;20492;-63
2023/12/29 10:17:03;;;;;;;3.28;2.53;;;12.10;71.40;;;;;;5005905;28;20376;-61
2023/12/29 10:19:58;;;;;;;2.75;2.15;;;12.10;71.40;;;;;;5005732;28;20049;-62
2023/12/29 10:22:36;;;;;;;4.18;2.40;;;12.20;71.10;;;;;;5009476;28;20026;-63
2023/12/29 10:25:02;;;;;;;3.60;2.35;;;12.20;71.10;;;;;;5009384;28;20018;-61
2023/12/29 10:27:28;;;;;;;5.05;2.42;;;12.30;71.50;;;;;;5008509;28;20055;-61
2023/12/29 10:29:54;;;;;;;4.75;2.20;;;12.40;71.70;;;;;;4989871;28;20138;-61
2023/12/29 10:32:19;;;;;;;4.13;2.65;;;12.50;71.80;;;;;;5013269;28;20551;-61
2023/12/29 10:34:45;;;;;;;2.55;2.10;;;12.60;71.90;;;;;;5010647;28;20141;-60
2023/12/29 10:37:14;;;;;;;3.28;2.20;;;12.70;71.80;;;;;;5008639;28;20929;-61
2023/12/29 10:39:55;;;;;;;2.22;1.83;;;12.80;71.30;;;;;;5014532;28;20042;-61
2023/12/29 10:42:21;;;;;;;2.65;1.70;;;12.90;70.40;;;;;;5004445;28;20030;-63
2023/12/29 10:44:47;;;;;;;2.75;1.98;;;13.00;70.60;;;;;;4998978;28;20509;-61
2023/12/29 10:47:14;;;;;;;2.22;1.60;;;13.00;70.20;;;;;;4909208;28;20565;-61
2023/12/29 10:49:40;;;;;;;2.03;1.73;;;13.00;69.70;;;;;;5005364;28;20518;-62
2023/12/29 10:52:17;;;;;;;2.53;1.92;;;13.00;69.70;;;;;;5005792;28;20061;-62
2023/12/29 10:54:43;;;;;;;2.67;1.85;;;13.00;69.50;;;;;;5009709;28;20696;-62
2023/12/29 10:57:11;;;;;;;2.00;1.80;;;13.00;69.50;;;;;;5003873;28;20400;-61
2023/12/29 10:59:37;;;;;;;4.15;1.50;;;13.00;69.50;;;;;;5008123;28;20037;-62
2023/12/29 11:02:03;;;;;;;1.88;1.52;;;13.00;69.40;;;;;;5007430;28;20033;-62
2023/12/29 11:04:30;;;;;;;1.65;1.40;;;13.00;69.40;;;;;;5008049;28;20030;-62
2023/12/29 11:06:55;;;;;;;1.40;1.20;;;13.00;69.20;;;;;;4989681;28;20046;-62
2023/12/29 11:09:33;;;;;;;3.42;1.58;;;13.00;69.20;;;;;;5012738;28;20166;-61
2023/12/29 11:12:01;;;;;;;1.38;1.25;;;13.00;68.80;;;;;;5004106;28;20029;-61
2023/12/29 11:14:30;;;;;;;3.97;1.33;;;13.00;69.20;;;;;;5003766;28;20044;-62
2023/12/29 11:16:58;;;;;;;3.15;1.60;;;13.00;69.20;;;;;;5006338;28;20033;-62
2023/12/29 11:19:24;;;;;;;2.00;1.63;;;13.00;69.10;;;;;;5014093;28;20034;-63
2023/12/29 11:21:56;;;;;;;2.28;1.67;;;13.00;69.00;;;;;;5008390;28;20028;-62
2023/12/29 11:24:22;;;;;;;4.60;1.80;;;13.00;68.90;;;;;;5005287;28;20092;-62
2023/12/29 11:26:49;;;;;;;2.58;1.60;;;13.00;68.90;;;;;;4987986;28;20026;-62
2023/12/29 11:29:16;;;;;;;1.90;1.70;;;13.00;68.80;;;;;;5008069;28;20100;-62
2023/12/29 11:31:44;;;;;;;1.88;1.48;;;12.90;68.80;;;;;;5004877;28;20747;-62
2023/12/29 11:34:16;;;;;;;2.63;1.88;;;12.90;68.90;;;;;;5006637;28;20033;-62
2023/12/29 11:36:46;;;;;;;2.17;1.48;;;12.90;68.40;;;;;;5002574;28;20022;-62
2023/12/29 11:39:25;;;;;;;3.40;1.70;;;12.90;68.90;;;;;;5003216;28;20061;-62
2023/12/29 11:42:06;;;;;;;1.70;1.42;;;12.90;68.90;;;;;;4991922;28;20033;-63
2023/12/29 11:44:33;;;;;;;2.05;1.67;;;13.00;68.90;;;;;;5004812;28;20388;-63
2023/12/29 11:47:00;;;;;;;2.15;1.60;;;13.00;69.30;;;;;;4944485;28;20026;-62
2023/12/29 11:49:25;;;;;;;1.50;1.40;;;13.10;69.20;;;;;;5004549;28;20026;-62
2023/12/29 11:51:52;;;;;;;1.98;1.52;;;13.20;69.20;;;;;;5006688;28;20048;-62
2023/12/29 11:54:26;;;;;;;1.40;1.30;;;13.20;69.10;;;;;;5004967;28;20058;-61
2023/12/29 11:56:53;;;;;;;1.63;1.40;;;13.30;68.60;;;;;;5004978;28;20025;-62
2023/12/29 11:59:24;;;;;;;1.45;1.35;;;13.40;68.70;;;;;;5006253;28;20037;-64
2023/12/29 12:01:57;;;;;;;2.58;1.40;;;13.40;68.40;;;;;;4984404;28;20399;-61
2023/12/29 12:04:41;;;;;;;2.70;1.70;;;13.50;68.30;;;;;;5001454;28;20026;-61
2023/12/29 12:07:09;;;;;;;3.72;1.80;;;13.60;67.80;;;;;;4999022;28;20065;-62
2023/12/29 12:09:36;;;;;;;2.30;1.67;;;13.60;67.70;;;;;;5002642;28;20032;-63
2023/12/29 12:12:06;;;;;;;2.05;1.80;;;13.70;67.80;;;;;;5002833;28;20102;-61
2023/12/29 12:14:50;;;;;;;3.80;2.50;;;13.70;67.60;;;;;;5001485;28;20033;-61
2023/12/29 12:17:28;;;;;;;2.92;2.10;;;13.70;66.70;;;;;;5003308;28;20560;-61
2023/12/29 12:19:59;;;;;;;4.00;2.03;;;13.70;66.60;;;;;;5003598;28;20038;-61
2023/12/29 12:22:27;;;;;;;5.35;2.80;;;13.70;66.80;;;;;;5003084;28;20025;-62
2023/12/29 12:24:58;;;;;;;2.88;2.20;;;13.60;66.60;;;;;;4998906;28;20538;-62
2023/12/29 12:27:26;;;;;;;3.38;2.30;;;13.60;66.70;;;;;;5001059;28;20040;-62
2023/12/29 12:29:59;;;;;;;5.47;2.25;;;13.60;67.00;;;;;;5006981;28;20022;-62
2023/12/29 12:32:29;;;;;;;3.72;2.53;;;13.60;66.60;;;;;;5009327;28;20125;-62
2023/12/29 12:34:58;;;;;;;4.80;1.90;;;13.50;66.80;;;;;;5002149;28;20132;-61
2023/12/29 12:37:29;;;;;;;3.95;2.47;;;13.50;66.80;;;;;;4984976;28;20037;-63
2023/12/29 12:39:56;;;;;;;2.10;1.90;;;13.50;66.80;;;;;;5004946;28;20034;-63
2023/12/29 12:42:23;;;;;;;2.88;1.92;;;13.50;66.90;;;;;;5002901;28;20082;-63
2023/12/29 12:45:06;;;;;;;4.32;2.25;;;13.40;67.00;;;;;;5000496;28;20120;-60
2023/12/29 12:47:44;;;;;;;3.40;1.92;;;13.40;66.80;;;;;;4935008;28;20040;-61
2023/12/29 12:50:13;;;;;;;3.42;2.08;;;13.50;66.70;;;;;;5004089;28;20484;-62
2023/12/29 12:52:40;;;;;;;3.60;2.15;;;13.40;67.00;;;;;;4999715;28;20038;-63